Time;durP1;ratioP1;P1;durP2;ratioP2;P2;SDS_P1;SDS_P2;PMS_P1;PMS_P2;Temp;Humidity;BMP_temperature;BMP_pressure;BME280_temperature;BME280_humidity;BME280_pressure;Samples;Min_cycle;Max_cycle;Signal;HPM_P1;HPM_P2
2022/01/11 00:01:20;;;;;;;14.98;5.50;;;;;;;;;;5134253;28;20483;-69
2022/01/11 00:03:46;;;;;;;11.63;5.43;;;;;;;;;;5135684;27;20492;-67
2022/01/11 00:08:45;;;;;;;;;;;;;;;;;;5138183;27;20042;-67
2022/01/11 00:11:12;;;;;;;12.10;4.43;;;;;;;;;;5137847;27;19904;-69
2022/01/11 00:13:39;;;;;;;9.32;4.25;;;;;;;;;;5119473;27;20027;-68
2022/01/11 00:16:06;;;;;;;7.53;4.75;;;;;;;;;;5118609;27;20144;-68
2022/01/11 00:18:32;;;;;;;6.45;4.50;;;;;;;;;;5137558;27;20402;-67
2022/01/11 00:20:58;;;;;;;6.65;4.40;;;;;;;;;;5119388;27;20461;-67
2022/01/11 00:25:52;;;;;;;6.57;4.30;;;;;;;;;;5137925;27;20068;-67
2022/01/11 00:28:19;;;;;;;5.75;3.80;;;;;;;;;;5137703;27;20033;-68
2022/01/11 00:30:47;;;;;;;8.25;4.55;;;;;;;;;;5137760;27;20588;-68
2022/01/11 00:33:18;;;;;;;7.63;4.32;;;;;;;;;;5137501;27;20061;-68
2022/01/11 00:35:49;;;;;;;6.45;4.07;;;;;;;;;;5118299;27;20043;-70
2022/01/11 00:38:16;;;;;;;4.63;3.88;;;;;;;;;;5137584;27;20455;-69
2022/01/11 00:40:53;;;;;;;4.05;3.50;;;;;;;;;;5137903;27;20059;-69
2022/01/11 00:43:20;;;;;;;4.28;3.70;;;;;;;;;;5137586;27;20461;-68
2022/01/11 00:45:47;;;;;;;5.82;3.67;;;;;;;;;;5137203;27;20030;-67
2022/01/11 00:48:14;;;;;;;10.55;4.20;;;;;;;;;;5137097;27;20027;-67
2022/01/11 00:50:40;;;;;;;5.05;3.92;;;;;;;;;;5118809;27;20015;-68
2022/01/11 00:53:06;;;;;;;4.13;3.70;;;;;;;;;;5136261;27;20031;-69
2022/01/11 00:55:34;;;;;;;5.45;3.88;;;;;;;;;;5136895;27;20047;-67
2022/01/11 00:58:00;;;;;;;5.40;3.63;;;;;;;;;;5118553;27;20124;-67
2022/01/11 01:00:25;;;;;;;6.72;3.65;;;;;;;;;;5136997;27;20478;-67
2022/01/11 01:02:51;;;;;;;5.78;4.10;;;;;;;;;;5136856;27;20072;-66
2022/01/11 01:05:18;;;;;;;9.50;3.53;;;;;;;;;;5136867;27;20022;-67
2022/01/11 01:07:47;;;;;;;5.63;4.10;;;;;;;;;;5136880;27;20096;-67
2022/01/11 01:12:58;;;;;;;6.32;4.55;;;;;;;;;;5136813;27;20080;-67
2022/01/11 01:15:26;;;;;;;4.05;3.55;;;;;;;;;;5135447;27;20100;-67
2022/01/11 01:17:52;;;;;;;4.32;3.92;;;;;;;;;;5135969;27;20458;-67
2022/01/11 01:20:18;;;;;;;7.13;4.57;;;;;;;;;;5136615;27;20081;-67
2022/01/11 01:22:46;;;;;;;6.95;4.25;;;;;;;;;;5136396;27;20575;-68
2022/01/11 01:25:13;;;;;;;6.70;5.00;;;;;;;;;;5136456;27;20102;-67
2022/01/11 01:27:39;;;;;;;6.18;4.57;;;;;;;;;;5136306;27;20513;-67
2022/01/11 01:30:06;;;;;;;7.47;4.85;;;;;;;;;;5118017;27;20117;-67
2022/01/11 01:32:32;;;;;;;7.50;4.45;;;;;;;;;;5136293;27;20088;-66
2022/01/11 01:35:03;;;;;;;5.25;4.53;;;;;;;;;;5135119;27;20023;-67
2022/01/11 01:37:30;;;;;;;5.60;4.55;;;;;;;;;;5136357;27;20041;-67
2022/01/11 01:39:56;;;;;;;5.57;4.47;;;;;;;;;;5136219;27;20015;-67
2022/01/11 01:42:24;;;;;;;8.85;4.38;;;;;;;;;;5136504;27;20114;-67
2022/01/11 01:44:51;;;;;;;6.85;4.28;;;;;;;;;;5117687;27;20106;-67
2022/01/11 01:47:16;;;;;;;4.45;4.03;;;;;;;;;;5136166;27;20036;-67
2022/01/11 01:49:43;;;;;;;6.88;4.50;;;;;;;;;;5135973;27;20030;-67
2022/01/11 01:52:09;;;;;;;7.50;4.43;;;;;;;;;;5136135;27;20026;-68
2022/01/11 01:54:35;;;;;;;4.45;4.05;;;;;;;;;;5135220;27;20019;-67
2022/01/11 01:57:01;;;;;;;6.38;4.80;;;;;;;;;;5135517;27;20418;-67
2022/01/11 01:59:28;;;;;;;4.85;4.40;;;;;;;;;;5136046;27;20023;-68
2022/01/11 02:01:54;;;;;;;4.93;4.28;;;;;;;;;;5135962;27;20056;-67
2022/01/11 02:04:20;;;;;;;6.88;4.13;;;;;;;;;;5135673;27;20051;-67
2022/01/11 02:06:46;;;;;;;6.60;4.97;;;;;;;;;;5135719;27;20023;-67
2022/01/11 02:09:15;;;;;;;5.13;4.55;;;;;;;;;;5135585;27;20023;-67
2022/01/11 02:11:41;;;;;;;6.72;4.57;;;;;;;;;;5135682;27;20386;-68
2022/01/11 02:14:07;;;;;;;4.50;4.10;;;;;;;;;;5134516;27;20029;-67
2022/01/11 02:16:33;;;;;;;5.45;4.68;;;;;;;;;;5135523;27;20034;-69
2022/01/11 02:18:59;;;;;;;6.35;4.75;;;;;;;;;;5135572;27;20080;-68
2022/01/11 02:21:25;;;;;;;5.82;4.75;;;;;;;;;;5135384;27;20420;-68
2022/01/11 02:23:51;;;;;;;5.97;4.55;;;;;;;;;;5135248;27;20481;-67
2022/01/11 02:26:17;;;;;;;6.55;5.00;;;;;;;;;;5135192;27;20360;-67
2022/01/11 02:28:44;;;;;;;6.18;4.90;;;;;;;;;;5134282;27;20373;-68
2022/01/11 02:31:12;;;;;;;5.45;4.90;;;;;;;;;;5135112;27;20120;-68
2022/01/11 02:33:42;;;;;;;8.25;5.00;;;;;;;;;;5135250;27;20103;-67
2022/01/11 02:36:10;;;;;;;8.30;5.25;;;;;;;;;;5134851;27;20062;-68
2022/01/11 02:38:36;;;;;;;5.63;4.85;;;;;;;;;;5135240;27;20023;-67
2022/01/11 02:41:03;;;;;;;5.70;4.82;;;;;;;;;;5135116;27;20031;-67
2022/01/11 02:43:29;;;;;;;5.85;5.13;;;;;;;;;;5134042;27;20031;-68
2022/01/11 02:45:56;;;;;;;4.95;4.30;;;;;;;;;;5134809;27;20023;-68
2022/01/11 02:48:22;;;;;;;6.43;5.03;;;;;;;;;;5134852;27;20143;-68
2022/01/11 02:50:48;;;;;;;5.75;4.82;;;;;;;;;;5134551;27;20405;-73
2022/01/11 02:53:15;;;;;;;6.63;4.95;;;;;;;;;;5134719;27;20442;-68
2022/01/11 02:55:43;;;;;;;5.60;4.90;;;;;;;;;;5116359;27;20072;-67
2022/01/11 02:58:09;;;;;;;6.25;5.20;;;;;;;;;;5116627;27;20067;-70
2022/01/11 03:00:38;;;;;;;5.95;5.30;;;;;;;;;;5115629;28;20031;-68
2022/01/11 03:03:16;;;;;;;7.95;5.53;;;;;;;;;;5096523;28;20120;-67
2022/01/11 03:05:46;;;;;;;6.13;5.28;;;;;;;;;;5114279;28;20078;-66
2022/01/11 03:08:12;;;;;;;5.47;4.90;;;;;;;;;;5114093;28;20024;-66
2022/01/11 03:10:39;;;;;;;5.65;4.97;;;;;;;;;;5113945;28;20522;-67
2022/01/11 03:13:06;;;;;;;8.35;4.47;;;;;;;;;;5095705;28;20122;-66
2022/01/11 03:15:32;;;;;;;7.15;5.00;;;;;;;;;;5113629;28;20474;-66
2022/01/11 03:17:58;;;;;;;8.82;4.93;;;;;;;;;;5116868;27;20023;-66
2022/01/11 03:20:24;;;;;;;5.75;5.13;;;;;;;;;;5134621;27;20024;-66
2022/01/11 03:22:50;;;;;;;5.93;5.03;;;;;;;;;;5134345;27;20059;-67
2022/01/11 03:25:17;;;;;;;6.20;5.60;;;;;;;;;;5134230;27;20025;-67
2022/01/11 03:27:43;;;;;;;5.90;5.25;;;;;;;;;;5128977;27;20031;-67
2022/01/11 03:30:10;;;;;;;6.30;5.70;;;;;;;;;;5113662;28;20028;-66
2022/01/11 03:32:37;;;;;;;6.22;4.93;;;;;;;;;;5113732;28;20031;-66
2022/01/11 03:35:04;;;;;;;8.02;5.63;;;;;;;;;;5132487;27;20031;-65
2022/01/11 03:37:30;;;;;;;7.35;5.45;;;;;;;;;;5133571;27;20047;-66
2022/01/11 03:39:56;;;;;;;6.25;5.50;;;;;;;;;;5133547;27;20034;-65
2022/01/11 03:42:21;;;;;;;11.07;5.88;;;;;;;;;;5133983;27;20051;-65
2022/01/11 03:44:49;;;;;;;7.22;5.53;;;;;;;;;;5134021;27;20031;-66
2022/01/11 03:47:15;;;;;;;6.35;5.50;;;;;;;;;;5134778;27;20020;-75
2022/01/11 03:49:41;;;;;;;9.70;5.70;;;;;;;;;;5136105;27;20481;-76
2022/01/11 03:52:07;;;;;;;7.18;5.53;;;;;;;;;;5135066;27;20029;-73
2022/01/11 03:54:50;;;;;;;6.13;5.47;;;;;;;;;;5133920;28;20028;-65
2022/01/11 03:57:16;;;;;;;7.35;5.90;;;;;;;;;;5115480;28;20037;-70
2022/01/11 03:59:42;;;;;;;13.23;5.53;;;;;;;;;;5133053;28;20106;-65
2022/01/11 04:02:08;;;;;;;7.85;5.47;;;;;;;;;;5133972;28;20024;-64
2022/01/11 04:04:34;;;;;;;7.63;5.50;;;;;;;;;;5133678;28;20030;-66
2022/01/11 04:07:00;;;;;;;7.60;6.07;;;;;;;;;;5133861;28;20423;-66
2022/01/11 04:09:26;;;;;;;8.25;5.63;;;;;;;;;;5133555;28;20023;-66
2022/01/11 04:11:52;;;;;;;7.72;6.10;;;;;;;;;;5115412;28;20390;-66
2022/01/11 04:14:18;;;;;;;6.80;5.05;;;;;;;;;;5115580;28;20347;-66
2022/01/11 04:16:46;;;;;;;8.48;5.90;;;;;;;;;;5132908;28;20561;-66
2022/01/11 04:19:12;;;;;;;6.82;5.68;;;;;;;;;;5133749;28;20106;-66
2022/01/11 04:21:38;;;;;;;5.80;5.20;;;;;;;;;;5133612;28;20200;-66
2022/01/11 04:24:04;;;;;;;6.70;5.40;;;;;;;;;;5133623;28;20019;-73
2022/01/11 04:26:30;;;;;;;9.95;5.55;;;;;;;;;;5135520;28;20033;-73
2022/01/11 04:28:56;;;;;;;6.32;5.68;;;;;;;;;;5119839;28;20020;-69
2022/01/11 04:31:22;;;;;;;6.53;5.43;;;;;;;;;;5114324;28;20555;-67
2022/01/11 04:33:48;;;;;;;5.85;5.15;;;;;;;;;;5114273;28;20683;-69
2022/01/11 04:36:14;;;;;;;7.10;5.13;;;;;;;;;;5129429;28;20058;-73
2022/01/11 04:38:40;;;;;;;5.93;4.97;;;;;;;;;;5134726;28;20051;-72
2022/01/11 04:41:07;;;;;;;11.55;5.60;;;;;;;;;;5134719;28;20038;-69
2022/01/11 04:43:33;;;;;;;6.00;5.30;;;;;;;;;;5134558;28;20027;-67
2022/01/11 04:45:59;;;;;;;6.20;5.50;;;;;;;;;;5115656;28;20019;-70
2022/01/11 04:48:26;;;;;;;6.50;5.63;;;;;;;;;;5115513;28;20036;-66
2022/01/11 04:50:53;;;;;;;7.70;5.20;;;;;;;;;;5117923;27;20088;-66
2022/01/11 04:53:19;;;;;;;6.97;6.22;;;;;;;;;;5137087;27;20034;-68
2022/01/11 04:55:45;;;;;;;8.88;5.55;;;;;;;;;;5137239;27;20058;-66
2022/01/11 04:58:11;;;;;;;10.05;6.10;;;;;;;;;;5137111;27;20100;-66
2022/01/11 05:00:37;;;;;;;6.25;5.50;;;;;;;;;;5137422;27;20058;-73
2022/01/11 05:03:03;;;;;;;6.95;5.85;;;;;;;;;;5137048;27;20038;-69
2022/01/11 05:05:30;;;;;;;7.53;5.68;;;;;;;;;;5136875;27;20041;-66
2022/01/11 05:07:56;;;;;;;5.85;5.25;;;;;;;;;;5136868;27;20019;-66
2022/01/11 05:10:23;;;;;;;6.90;5.20;;;;;;;;;;5137129;27;20057;-66
2022/01/11 05:12:49;;;;;;;6.05;4.95;;;;;;;;;;5136802;27;20485;-66
2022/01/11 05:15:16;;;;;;;6.70;5.30;;;;;;;;;;5136689;27;20030;-67
2022/01/11 05:17:42;;;;;;;6.07;5.00;;;;;;;;;;5136052;27;20023;-67
2022/01/11 05:20:08;;;;;;;6.53;5.65;;;;;;;;;;5136831;27;20064;-66
2022/01/11 05:22:35;;;;;;;5.47;4.85;;;;;;;;;;5136621;27;20030;-66
2022/01/11 05:25:01;;;;;;;7.63;5.28;;;;;;;;;;5136289;27;20046;-66
2022/01/11 05:27:28;;;;;;;8.70;5.15;;;;;;;;;;5118118;27;20106;-66
2022/01/11 05:29:54;;;;;;;5.88;5.28;;;;;;;;;;5137155;27;20082;-72
2022/01/11 05:32:20;;;;;;;6.05;5.45;;;;;;;;;;5119723;27;20077;-75
2022/01/11 05:34:46;;;;;;;8.27;6.32;;;;;;;;;;5120027;27;20055;-69
2022/01/11 05:37:12;;;;;;;5.88;5.15;;;;;;;;;;5119469;27;20069;-74
2022/01/11 05:39:39;;;;;;;6.53;5.28;;;;;;;;;;5137891;27;20461;-71
2022/01/11 05:42:08;;;;;;;7.35;5.85;;;;;;;;;;5138500;27;20031;-76
2022/01/11 05:44:35;;;;;;;6.32;5.28;;;;;;;;;;5138524;27;20487;-73
2022/01/11 05:47:01;;;;;;;6.20;5.60;;;;;;;;;;5119870;27;20758;-69
2022/01/11 05:49:27;;;;;;;6.45;5.43;;;;;;;;;;5137332;27;20015;-70
2022/01/11 05:51:53;;;;;;;6.40;5.40;;;;;;;;;;5137903;27;20031;-72
2022/01/11 05:54:19;;;;;;;5.22;4.72;;;;;;;;;;5138387;27;20023;-74
2022/01/11 05:56:54;;;;;;;8.00;5.93;;;;;;;;;;5137754;27;20118;-76
2022/01/11 05:59:20;;;;;;;6.22;5.13;;;;;;;;;;5138810;27;20011;-77
2022/01/11 06:01:46;;;;;;;5.38;4.88;;;;;;;;;;5136964;27;20367;-72
2022/01/11 06:04:12;;;;;;;5.82;5.00;;;;;;;;;;5116314;28;20028;-75
2022/01/11 06:06:38;;;;;;;6.30;5.28;;;;;;;;;;5117022;28;20027;-76
2022/01/11 06:09:04;;;;;;;5.57;4.97;;;;;;;;;;5116390;28;20073;-66
2022/01/11 06:11:30;;;;;;;6.10;4.88;;;;;;;;;;5115101;28;20047;-69
2022/01/11 06:13:56;;;;;;;5.53;5.03;;;;;;;;;;5115298;28;20067;-66
2022/01/11 06:16:22;;;;;;;5.47;4.97;;;;;;;;;;5126270;27;20072;-69
2022/01/11 06:18:49;;;;;;;5.20;4.70;;;;;;;;;;5135627;27;20415;-67
2022/01/11 06:21:15;;;;;;;5.05;4.55;;;;;;;;;;5114803;28;20056;-67
2022/01/11 06:23:41;;;;;;;5.15;4.68;;;;;;;;;;5122112;27;20106;-68
2022/01/11 06:26:07;;;;;;;5.32;4.32;;;;;;;;;;5123014;27;20019;-68
2022/01/11 06:28:33;;;;;;;5.28;4.68;;;;;;;;;;5126793;27;20023;-67
2022/01/11 06:30:59;;;;;;;5.30;4.80;;;;;;;;;;5122116;27;20034;-66
2022/01/11 06:33:25;;;;;;;11.10;8.50;;;;;;;;;;5114708;28;20031;-69
2022/01/11 06:35:51;;;;;;;22.58;8.90;;;;;;;;;;5117881;27;20046;-71
2022/01/11 06:38:17;;;;;;;24.70;11.20;;;;;;;;;;5133399;27;20040;-70
2022/01/11 06:40:43;;;;;;;32.92;9.82;;;;;;;;;;5135458;27;20495;-69
2022/01/11 06:43:10;;;;;;;41.28;11.98;;;;;;;;;;5136285;27;20023;-67
2022/01/11 06:45:36;;;;;;;26.77;11.18;;;;;;;;;;5135137;27;20019;-66
2022/01/11 06:48:02;;;;;;;21.15;11.63;;;;;;;;;;5135064;27;20031;-66
2022/01/11 06:50:28;;;;;;;41.90;10.13;;;;;;;;;;5135082;27;20369;-66
2022/01/11 06:52:54;;;;;;;28.15;11.13;;;;;;;;;;5116185;27;20041;-66
2022/01/11 06:55:21;;;;;;;31.40;10.82;;;;;;;;;;5135033;27;20026;-66
2022/01/11 06:57:47;;;;;;;28.23;10.02;;;;;;;;;;5134634;27;20526;-66
2022/01/11 07:00:13;;;;;;;24.48;10.15;;;;;;;;;;5134574;27;20051;-66
2022/01/11 07:02:39;;;;;;;28.30;9.93;;;;;;;;;;5133741;27;20031;-66
2022/01/11 07:05:06;;;;;;;26.58;9.55;;;;;;;;;;5115838;27;20018;-66
2022/01/11 07:07:32;;;;;;;13.65;8.85;;;;;;;;;;5095787;28;20100;-69
2022/01/11 07:09:58;;;;;;;34.10;9.55;;;;;;;;;;5095898;28;20026;-69
2022/01/11 07:12:24;;;;;;;15.98;9.10;;;;;;;;;;5113579;28;20032;-68
2022/01/11 07:14:50;;;;;;;20.08;9.10;;;;;;;;;;5113382;28;20471;-68
2022/01/11 07:17:17;;;;;;;16.20;8.50;;;;;;;;;;5113597;28;20023;-68
2022/01/11 07:19:43;;;;;;;21.90;8.63;;;;;;;;;;5102888;27;20023;-68
2022/01/11 07:22:09;;;;;;;14.18;8.20;;;;;;;;;;5134180;27;20027;-68
2022/01/11 07:24:35;;;;;;;14.35;8.10;;;;;;;;;;5134269;27;20030;-68
2022/01/11 07:27:01;;;;;;;9.30;7.45;;;;;;;;;;5134016;27;20053;-68
2022/01/11 07:29:27;;;;;;;11.50;8.25;;;;;;;;;;5134254;27;20027;-68
2022/01/11 07:31:53;;;;;;;11.07;7.72;;;;;;;;;;5134183;27;20026;-68
2022/01/11 07:34:19;;;;;;;10.65;7.05;;;;;;;;;;5114905;27;20034;-68
2022/01/11 07:36:45;;;;;;;14.68;7.13;;;;;;;;;;5133630;27;20047;-68
2022/01/11 07:39:14;;;;;;;15.27;7.60;;;;;;;;;;5115662;27;20397;-69
2022/01/11 07:41:41;;;;;;;11.07;7.25;;;;;;;;;;5135192;27;20035;-67
2022/01/11 07:44:07;;;;;;;9.05;7.05;;;;;;;;;;5134505;27;20019;-64
2022/01/11 07:46:33;;;;;;;14.18;7.22;;;;;;;;;;5133911;27;20751;-65
2022/01/11 07:48:59;;;;;;;8.18;6.97;;;;;;;;;;5130316;27;20068;-66
2022/01/11 07:51:26;;;;;;;18.83;7.10;;;;;;;;;;5122622;27;20027;-68
2022/01/11 07:53:52;;;;;;;12.05;6.60;;;;;;;;;;5133529;27;20031;-66
2022/01/11 07:56:18;;;;;;;13.13;6.60;;;;;;;;;;5133970;28;20039;-65
2022/01/11 07:58:44;;;;;;;15.98;7.15;;;;;;;;;;5133713;28;20044;-66
2022/01/11 08:01:10;;;;;;;7.88;6.22;;;;;;;;;;5133792;28;20023;-66
2022/01/11 08:03:37;;;;;;;9.77;6.25;;;;;;;;;;5120396;28;20023;-65
2022/01/11 08:06:03;;;;;;;12.80;6.88;;;;;;;;;;5113934;28;20016;-68
2022/01/11 08:08:29;;;;;;;8.82;5.97;;;;;;;;;;5109309;28;20127;-65
2022/01/11 08:10:56;;;;;;;9.75;6.53;;;;;;;;;;5131712;28;20065;-65
2022/01/11 08:13:22;;;;;;;9.50;6.10;;;;;;;;;;5131605;28;20027;-66
2022/01/11 08:15:48;;;;;;;9.95;6.50;;;;;;;;;;5133904;28;20023;-65
2022/01/11 08:18:14;;;;;;;9.95;6.70;;;;;;;;;;5133772;28;20031;-65
2022/01/11 08:20:40;;;;;;;9.73;6.20;;;;;;;;;;5133622;28;20067;-65
2022/01/11 08:23:06;;;;;;;15.93;6.30;;;;;;;;;;5133368;28;20023;-66
2022/01/11 08:25:32;;;;;;;6.93;5.70;;;;;;;;;;5136488;27;20023;-65
2022/01/11 08:27:59;;;;;;;10.32;6.47;;;;;;;;;;5130597;27;20034;-65
2022/01/11 08:30:26;;;;;;;7.20;6.03;;;;;;;;;;5137738;27;20021;-65
2022/01/11 08:32:52;;;;;;;7.18;5.80;;;;;;;;;;5119121;27;20386;-65
2022/01/11 08:35:18;;;;;;;10.10;6.35;;;;;;;;;;5135225;27;20032;-65
2022/01/11 08:37:44;;;;;;;9.40;5.68;;;;;;;;;;5109126;27;20053;-65
2022/01/11 08:40:11;;;;;;;6.82;5.28;;;;;;;;;;5134213;27;20420;-66
2022/01/11 08:42:38;;;;;;;9.15;6.32;;;;;;;;;;5131914;27;20027;-66
2022/01/11 08:45:04;;;;;;;10.07;5.90;;;;;;;;;;5114232;27;20023;-66
2022/01/11 08:47:31;;;;;;;9.52;5.95;;;;;;;;;;5137251;27;20094;-65
2022/01/11 08:49:59;;;;;;;9.32;5.85;;;;;;;;;;5117075;28;20115;-66
2022/01/11 08:52:25;;;;;;;7.85;6.00;;;;;;;;;;5116931;28;20024;-66
2022/01/11 08:54:51;;;;;;;7.13;5.38;;;;;;;;;;5116633;28;20020;-65
2022/01/11 08:57:19;;;;;;;8.60;5.60;;;;;;;;;;5116529;28;20036;-65
2022/01/11 08:59:45;;;;;;;7.13;5.38;;;;;;;;;;5117588;27;20033;-66
2022/01/11 09:02:12;;;;;;;5.78;5.18;;;;;;;;;;5137143;27;20049;-65
2022/01/11 09:04:38;;;;;;;8.13;5.85;;;;;;;;;;5137041;27;20030;-66
2022/01/11 09:07:04;;;;;;;7.45;5.68;;;;;;;;;;5137113;27;20087;-67
2022/01/11 09:09:31;;;;;;;7.43;5.82;;;;;;;;;;5137467;27;20102;-67
2022/01/11 09:11:57;;;;;;;11.73;6.28;;;;;;;;;;5136912;27;20442;-67
2022/01/11 09:14:24;;;;;;;8.73;5.72;;;;;;;;;;5136725;27;20055;-68
2022/01/11 09:16:50;;;;;;;6.72;4.85;;;;;;;;;;5136625;27;20031;-67
2022/01/11 09:19:18;;;;;;;7.43;5.30;;;;;;;;;;5135785;27;20062;-67
2022/01/11 09:21:44;;;;;;;9.50;5.30;;;;;;;;;;5136662;27;20024;-67
2022/01/11 09:24:11;;;;;;;6.22;5.00;;;;;;;;;;5136336;27;20501;-67
2022/01/11 09:26:38;;;;;;;6.93;5.63;;;;;;;;;;5136469;27;20044;-67
2022/01/11 09:29:04;;;;;;;6.65;5.32;;;;;;;;;;5136507;27;20108;-67
2022/01/11 09:31:30;;;;;;;7.10;5.45;;;;;;;;;;5136540;27;20037;-67
2022/01/11 09:33:55;;;;;;;6.82;5.28;;;;;;;;;;5117944;27;20088;-67
2022/01/11 09:36:22;;;;;;;7.18;5.10;;;;;;;;;;5115807;27;20043;-67
2022/01/11 09:38:47;;;;;;;8.30;5.20;;;;;;;;;;5136196;27;20019;-68
2022/01/11 09:41:14;;;;;;;9.75;4.88;;;;;;;;;;5136262;27;20035;-68
2022/01/11 09:43:41;;;;;;;7.47;5.03;;;;;;;;;;5136305;27;20102;-68
2022/01/11 09:46:07;;;;;;;6.90;4.97;;;;;;;;;;5117789;27;20130;-68
2022/01/11 09:48:34;;;;;;;6.95;4.45;;;;;;;;;;5136096;27;20465;-72
2022/01/11 09:51:00;;;;;;;5.25;4.47;;;;;;;;;;5117619;27;20473;-71
2022/01/11 09:53:27;;;;;;;6.80;4.57;;;;;;;;;;5135956;27;20481;-68
2022/01/11 09:55:53;;;;;;;6.88;4.93;;;;;;;;;;5136383;27;20045;-66
2022/01/11 09:58:19;;;;;;;7.10;4.55;;;;;;;;;;5135560;27;20205;-68
2022/01/11 10:00:45;;;;;;;5.60;4.45;;;;;;;;;;5135842;27;20031;-68
2022/01/11 10:03:11;;;;;;;11.32;4.78;;;;;;;;;;5135641;27;20031;-68
2022/01/11 10:05:38;;;;;;;9.32;5.18;;;;;;;;;;5116654;27;20062;-72
2022/01/11 10:08:19;;;;;;;6.07;4.40;;;;;;;;;;5135247;27;20482;-68
2022/01/11 10:10:46;;;;;;;4.97;4.13;;;;;;;;;;5135585;27;20106;-68
2022/01/11 10:13:27;;;;;;;4.90;4.07;;;;;;;;;;5117070;27;20027;-73
2022/01/11 10:15:53;;;;;;;6.25;4.10;;;;;;;;;;5135396;27;20055;-73
2022/01/11 10:18:35;;;;;;;5.85;3.80;;;;;;;;;;5134214;27;20472;-73
2022/01/11 10:21:01;;;;;;;5.33;4.33;;;;;;;;;;5134615;27;20023;-71
2022/01/11 10:23:34;;;;;;;8.10;4.30;;;;;;;;;;5133673;27;20096;-71
2022/01/11 10:26:00;;;;;;;10.32;4.90;;;;;;;;;;5134733;27;20474;-72
2022/01/11 10:28:34;;;;;;;6.22;4.30;;;;;;;;;;5135326;27;20026;-72
2022/01/11 10:31:00;;;;;;;5.50;3.90;;;;;;;;;;5135424;27;20031;-71
2022/01/11 10:33:26;;;;;;;7.63;4.40;;;;;;;;;;5135293;27;20015;-71
2022/01/11 10:35:52;;;;;;;5.45;3.95;;;;;;;;;;5117069;27;20027;-72
2022/01/11 10:38:27;;;;;;;5.93;4.10;;;;;;;;;;5135388;27;20428;-72
2022/01/11 10:40:53;;;;;;;5.00;4.13;;;;;;;;;;5134382;27;20084;-71
2022/01/11 10:43:20;;;;;;;4.97;3.72;;;;;;;;;;5134905;27;20023;-72
2022/01/11 10:45:50;;;;;;;9.15;4.60;;;;;;;;;;5133997;27;20071;-71
2022/01/11 10:48:18;;;;;;;8.43;3.90;;;;;;;;;;5115349;27;20110;-72
2022/01/11 10:50:45;;;;;;;7.43;4.03;;;;;;;;;;5133650;27;20027;-68
2022/01/11 10:53:12;;;;;;;5.40;3.88;;;;;;;;;;5133747;27;20020;-68
2022/01/11 10:55:39;;;;;;;7.43;4.15;;;;;;;;;;5134643;27;20410;-68
2022/01/11 10:58:07;;;;;;;7.20;4.13;;;;;;;;;;5131844;27;20070;-69
2022/01/11 11:00:37;;;;;;;6.13;4.28;;;;;;;;;;5127706;27;20050;-68
2022/01/11 11:03:02;;;;;;;5.13;3.78;;;;;;;;;;5125335;27;20051;-69
2022/01/11 11:05:30;;;;;;;6.22;4.28;;;;;;;;;;5114239;28;20055;-69
2022/01/11 11:07:56;;;;;;;6.20;3.85;;;;;;;;;;5095919;28;20024;-66
2022/01/11 11:10:34;;;;;;;7.95;4.60;;;;;;;;;;5113784;28;20079;-69
2022/01/11 11:13:01;;;;;;;6.15;3.90;;;;;;;;;;5117147;27;20019;-69
2022/01/11 11:15:28;;;;;;;5.82;3.63;;;;;;;;;;5134425;27;20019;-68
2022/01/11 11:17:54;;;;;;;6.50;3.88;;;;;;;;;;5134326;27;20039;-77
2022/01/11 11:20:20;;;;;;;6.13;4.00;;;;;;;;;;5135127;27;20050;-67
2022/01/11 11:22:46;;;;;;;6.72;3.88;;;;;;;;;;5134235;27;20084;-67
2022/01/11 11:25:12;;;;;;;8.80;3.80;;;;;;;;;;5134225;27;20031;-67
2022/01/11 11:27:38;;;;;;;6.57;4.30;;;;;;;;;;5129614;27;20501;-67
2022/01/11 11:30:05;;;;;;;5.93;3.95;;;;;;;;;;5120878;27;20023;-67
2022/01/11 11:32:32;;;;;;;6.25;4.28;;;;;;;;;;5133981;27;20031;-67
2022/01/11 11:34:59;;;;;;;4.28;3.58;;;;;;;;;;5133801;27;20110;-67
2022/01/11 11:37:36;;;;;;;5.43;3.80;;;;;;;;;;5134003;27;20047;-67
2022/01/11 11:40:13;;;;;;;4.45;3.53;;;;;;;;;;5134199;27;20076;-67
2022/01/11 11:42:39;;;;;;;4.97;3.45;;;;;;;;;;5136894;27;20026;-82
2022/01/11 11:45:20;;;;;;;5.15;3.70;;;;;;;;;;5137015;27;20498;-69
2022/01/11 11:47:46;;;;;;;5.22;3.65;;;;;;;;;;5133084;27;20034;-69
2022/01/11 11:50:14;;;;;;;7.80;4.05;;;;;;;;;;5115553;28;20015;-69
2022/01/11 11:52:42;;;;;;;4.88;3.80;;;;;;;;;;5134078;27;20668;-67
2022/01/11 11:55:10;;;;;;;6.07;3.40;;;;;;;;;;5133947;27;20648;-69
2022/01/11 11:57:39;;;;;;;7.35;3.63;;;;;;;;;;5133941;27;20554;-68
2022/01/11 12:00:11;;;;;;;5.85;3.78;;;;;;;;;;5115051;28;20069;-69
2022/01/11 12:02:39;;;;;;;5.05;3.88;;;;;;;;;;5133885;28;20054;-70
2022/01/11 12:05:06;;;;;;;4.80;3.65;;;;;;;;;;5133778;28;20529;-69
2022/01/11 12:07:38;;;;;;;4.40;3.55;;;;;;;;;;5133877;28;20027;-70
2022/01/11 12:10:06;;;;;;;6.03;4.25;;;;;;;;;;5133879;28;20022;-69
2022/01/11 12:12:39;;;;;;;6.13;4.03;;;;;;;;;;5133782;28;20165;-69
2022/01/11 12:15:35;;;;;;;5.47;3.90;;;;;;;;;;5133737;28;20031;-69
2022/01/11 12:18:02;;;;;;;4.60;3.50;;;;;;;;;;5111814;28;20047;-71
2022/01/11 12:20:43;;;;;;;5.88;3.50;;;;;;;;;;5133612;28;20015;-69
2022/01/11 12:23:10;;;;;;;5.38;4.32;;;;;;;;;;5115022;28;20023;-69
2022/01/11 12:25:42;;;;;;;7.15;3.83;;;;;;;;;;5114912;28;20030;-69
2022/01/11 12:28:15;;;;;;;4.43;3.40;;;;;;;;;;5106531;28;20023;-70
2022/01/11 12:30:41;;;;;;;4.95;3.60;;;;;;;;;;5112839;28;20256;-69
2022/01/11 12:33:10;;;;;;;4.15;3.65;;;;;;;;;;5112989;28;20114;-68
2022/01/11 12:35:56;;;;;;;6.53;4.10;;;;;;;;;;5120856;28;20023;-69
2022/01/11 12:38:23;;;;;;;8.00;4.50;;;;;;;;;;5133350;28;20059;-69
2022/01/11 12:40:50;;;;;;;6.20;3.85;;;;;;;;;;5133148;28;20470;-68
2022/01/11 12:43:35;;;;;;;5.35;3.92;;;;;;;;;;5133760;28;20076;-74
2022/01/11 12:46:08;;;;;;;6.55;4.25;;;;;;;;;;5115109;28;20091;-69
2022/01/11 12:48:40;;;;;;;7.13;4.50;;;;;;;;;;5133494;28;20019;-68
2022/01/11 12:51:06;;;;;;;7.65;4.30;;;;;;;;;;5132519;28;20019;-67
2022/01/11 12:53:32;;;;;;;5.03;4.22;;;;;;;;;;5133377;28;20032;-66
2022/01/11 12:55:58;;;;;;;11.63;4.93;;;;;;;;;;5131613;28;20065;-66
2022/01/11 12:58:24;;;;;;;6.43;4.50;;;;;;;;;;5121404;28;20027;-73
2022/01/11 13:00:50;;;;;;;12.70;4.20;;;;;;;;;;5124050;28;20371;-68
2022/01/11 13:03:16;;;;;;;17.98;4.43;;;;;;;;;;5124649;28;20027;-66
2022/01/11 13:05:43;;;;;;;6.10;3.35;;;;;;;;;;5114694;28;20026;-68
2022/01/11 13:08:09;;;;;;;17.25;3.90;;;;;;;;;;5112822;28;20107;-66
2022/01/11 13:10:35;;;;;;;9.40;3.08;;;;;;;;;;5112730;28;20019;-67
2022/01/11 13:13:08;;;;;;;14.40;3.70;;;;;;;;;;5115808;28;20508;-69
2022/01/11 13:15:49;;;;;;;16.92;3.42;;;;;;;;;;5116504;28;20106;-68
2022/01/11 13:18:16;;;;;;;12.85;3.38;;;;;;;;;;5136991;27;20529;-68
2022/01/11 13:20:42;;;;;;;11.60;3.20;;;;;;;;;;5136310;27;20086;-67
2022/01/11 13:23:16;;;;;;;8.90;3.05;;;;;;;;;;5135225;27;20448;-67
2022/01/11 13:25:43;;;;;;;28.17;3.00;;;;;;;;;;5136771;27;20019;-68
2022/01/11 13:28:10;;;;;;;17.92;3.25;;;;;;;;;;5136650;27;20023;-67
2022/01/11 13:30:37;;;;;;;7.40;3.25;;;;;;;;;;5117995;27;20133;-67
2022/01/11 13:33:03;;;;;;;18.27;3.58;;;;;;;;;;5136532;27;20547;-65
2022/01/11 13:35:29;;;;;;;6.93;3.05;;;;;;;;;;5135675;27;20050;-68
2022/01/11 13:37:55;;;;;;;6.10;2.70;;;;;;;;;;5135911;27;20065;-68
2022/01/11 13:40:25;;;;;;;7.20;3.08;;;;;;;;;;5136513;27;20023;-68
2022/01/11 13:43:01;;;;;;;5.13;3.03;;;;;;;;;;5136305;27;20436;-68
2022/01/11 13:45:34;;;;;;;10.40;3.55;;;;;;;;;;5136086;27;20049;-66
2022/01/11 13:48:10;;;;;;;4.55;3.67;;;;;;;;;;5135268;27;20450;-67
2022/01/11 13:51:00;;;;;;;7.18;3.53;;;;;;;;;;5117807;27;20042;-69
2022/01/11 13:53:26;;;;;;;9.98;3.78;;;;;;;;;;5115545;28;20043;-68
2022/01/11 13:55:53;;;;;;;6.45;3.42;;;;;;;;;;5115631;28;20019;-71
2022/01/11 13:58:20;;;;;;;7.60;3.67;;;;;;;;;;5097302;28;20099;-67
2022/01/11 14:00:46;;;;;;;6.35;3.88;;;;;;;;;;5097107;28;20085;-69
2022/01/11 14:03:14;;;;;;;5.82;3.88;;;;;;;;;;5115770;28;20051;-69
2022/01/11 14:05:40;;;;;;;9.10;4.10;;;;;;;;;;5115402;28;20027;-69
2022/01/11 14:08:09;;;;;;;5.28;3.33;;;;;;;;;;5114849;28;20459;-67
2022/01/11 14:10:37;;;;;;;8.70;3.63;;;;;;;;;;5128246;27;20024;-68
2022/01/11 14:13:07;;;;;;;4.78;3.60;;;;;;;;;;5135663;27;20058;-69
2022/01/11 14:15:33;;;;;;;6.00;3.90;;;;;;;;;;5135672;27;20366;-68
2022/01/11 14:18:00;;;;;;;6.50;3.75;;;;;;;;;;5135618;27;20035;-69
2022/01/11 14:20:30;;;;;;;6.63;3.85;;;;;;;;;;5117529;27;20058;-69
2022/01/11 14:22:58;;;;;;;4.88;3.42;;;;;;;;;;5134966;27;20051;-67
2022/01/11 14:25:24;;;;;;;6.03;3.53;;;;;;;;;;5135678;27;20455;-66
2022/01/11 14:28:01;;;;;;;6.97;3.75;;;;;;;;;;5134468;27;20051;-66
2022/01/11 14:30:46;;;;;;;6.65;3.30;;;;;;;;;;5135442;27;20023;-67
2022/01/11 14:33:27;;;;;;;5.95;3.67;;;;;;;;;;5135309;27;20023;-66
2022/01/11 14:36:01;;;;;;;5.63;3.58;;;;;;;;;;5135258;27;20027;-66
2022/01/11 14:38:38;;;;;;;5.45;3.70;;;;;;;;;;5134976;27;20050;-66
2022/01/11 14:41:05;;;;;;;5.85;3.33;;;;;;;;;;5135039;27;20024;-66
2022/01/11 14:43:31;;;;;;;3.70;3.17;;;;;;;;;;5134224;27;20044;-66
2022/01/11 14:45:59;;;;;;;7.13;3.50;;;;;;;;;;5134923;27;20091;-67
2022/01/11 14:48:39;;;;;;;4.80;3.35;;;;;;;;;;5135153;27;20023;-67
2022/01/11 14:51:13;;;;;;;5.72;3.47;;;;;;;;;;5134824;27;20038;-66